createdAt,value
2023-08-20T00:01:13.458Z,14.80
2023-08-20T00:04:15.855Z,13.00
2023-08-20T00:07:19.438Z,15.10
2023-08-20T00:10:21.183Z,14.65
2023-08-20T00:13:22.766Z,14.98
2023-08-20T00:16:24.562Z,14.80
2023-08-20T00:19:26.392Z,13.68
2023-08-20T00:22:28.178Z,13.75
2023-08-20T00:25:30.039Z,13.45
2023-08-20T00:28:31.730Z,14.32
2023-08-20T00:31:33.358Z,14.02
2023-08-20T00:34:35.225Z,14.10
2023-08-20T00:37:37.107Z,14.82
2023-08-20T00:40:39.055Z,14.77
2023-08-20T00:43:40.597Z,17.48
2023-08-20T00:46:42.380Z,17.88
2023-08-20T00:49:43.985Z,15.02
2023-08-20T00:52:46.685Z,15.40
2023-08-20T00:55:48.727Z,14.87
2023-08-20T00:58:50.948Z,13.32
2023-08-20T01:01:52.571Z,13.20
2023-08-20T01:04:54.191Z,15.07
2023-08-20T01:08:14.174Z,14.55
2023-08-20T01:11:28.042Z,13.38
2023-08-20T01:14:29.664Z,12.75
2023-08-20T01:17:32.146Z,12.77
2023-08-20T01:20:40.392Z,14.68
2023-08-20T01:24:00.665Z,16.00
2023-08-20T01:27:20.770Z,14.02
2023-08-20T01:30:22.745Z,14.35
2023-08-20T01:33:26.236Z,14.20
2023-08-20T01:36:27.822Z,16.70
2023-08-20T01:39:29.396Z,15.18
2023-08-20T01:42:30.887Z,15.10
2023-08-20T01:45:32.405Z,15.25
2023-08-20T01:48:33.982Z,14.82
2023-08-20T01:51:37.521Z,13.55
2023-08-20T01:54:39.053Z,14.05
2023-08-20T01:57:40.584Z,15.88
2023-08-20T02:00:42.158Z,15.07
2023-08-20T02:03:43.721Z,15.23
2023-08-20T02:06:45.231Z,15.23
2023-08-20T02:09:49.651Z,18.17
2023-08-20T02:12:51.237Z,16.23
2023-08-20T02:16:03.485Z,16.55
2023-08-20T02:19:06.777Z,14.52
2023-08-20T02:22:08.375Z,17.27
2023-08-20T02:25:09.932Z,16.00
2023-08-20T02:28:11.536Z,19.05
2023-08-20T02:31:14.152Z,17.08
2023-08-20T02:34:15.739Z,14.88
2023-08-20T02:37:17.295Z,15.38
2023-08-20T02:40:20.069Z,18.70
2023-08-20T02:43:21.610Z,14.18
2023-08-20T02:46:23.171Z,16.25
2023-08-20T02:49:24.757Z,16.10
2023-08-20T02:52:26.243Z,14.40
2023-08-20T02:55:27.812Z,16.80
2023-08-20T02:58:29.369Z,14.70
2023-08-20T03:01:31.690Z,13.63
2023-08-20T03:04:33.362Z,13.80
2023-08-20T03:07:35.188Z,14.27
2023-08-20T03:10:37.008Z,13.93
2023-08-20T03:13:38.638Z,15.23
2023-08-20T03:16:40.215Z,16.55
2023-08-20T03:19:58.663Z,16.70
2023-08-20T03:23:00.259Z,15.18
2023-08-20T03:26:01.826Z,13.95
2023-08-20T03:29:04.351Z,16.45
2023-08-20T03:32:06.108Z,14.80
2023-08-20T03:35:07.987Z,14.63
2023-08-20T03:38:09.718Z,15.38
2023-08-20T03:41:11.914Z,20.02
2023-08-20T03:44:13.688Z,16.13
2023-08-20T03:47:16.792Z,16.10
2023-08-20T03:50:18.374Z,16.77
2023-08-20T03:53:20.432Z,14.77
2023-08-20T03:56:21.956Z,20.42
2023-08-20T03:59:23.504Z,15.65
2023-08-20T04:02:25.071Z,14.93
2023-08-20T04:05:26.652Z,14.75
2023-08-20T04:08:28.392Z,15.50
2023-08-20T04:11:30.585Z,14.95
2023-08-20T04:14:32.215Z,14.75
2023-08-20T04:17:34.001Z,13.93
2023-08-20T04:20:35.985Z,14.65
2023-08-20T04:23:38.334Z,13.90
2023-08-20T04:26:39.866Z,14.90
2023-08-20T04:29:41.454Z,13.35
2023-08-20T04:32:43.115Z,18.90
2023-08-20T04:35:44.693Z,14.18
2023-08-20T04:38:46.239Z,13.35
2023-08-20T04:41:48.239Z,14.80
2023-08-20T04:44:53.016Z,14.00
2023-08-20T04:47:54.964Z,14.02
2023-08-20T04:50:56.594Z,13.13
2023-08-20T04:53:58.125Z,14.85
2023-08-20T04:56:59.679Z,12.57
2023-08-20T05:00:02.138Z,15.38
2023-08-20T05:03:18.996Z,13.57
2023-08-20T05:06:20.852Z,13.57
2023-08-20T05:09:23.068Z,13.55
2023-08-20T05:12:24.773Z,13.95
2023-08-20T05:15:26.310Z,12.68
2023-08-20T05:18:28.106Z,12.82
2023-08-20T05:21:29.962Z,13.20
2023-08-20T05:24:32.150Z,15.77
2023-08-20T05:27:35.121Z,12.75
2023-08-20T05:30:38.826Z,14.80
2023-08-20T05:33:40.422Z,13.60
2023-08-20T05:36:43.334Z,14.23
2023-08-20T05:39:45.685Z,13.68
2023-08-20T05:42:50.563Z,14.48
2023-08-20T05:45:53.840Z,13.55
2023-08-20T05:52:00.740Z,13.95
2023-08-20T05:55:04.273Z,13.20
2023-08-20T05:58:06.053Z,12.77
2023-08-20T06:01:08.546Z,12.30
2023-08-20T06:04:10.587Z,11.80
2023-08-20T06:07:12.167Z,12.60
2023-08-20T06:10:13.763Z,13.40
2023-08-20T06:13:15.395Z,13.57
2023-08-20T06:16:16.924Z,12.57
2023-08-20T06:19:18.618Z,14.60
2023-08-20T06:22:20.164Z,12.30
2023-08-20T06:25:21.706Z,13.93
2023-08-20T06:28:23.231Z,14.30
2023-08-20T06:31:24.831Z,16.42
2023-08-20T06:34:26.352Z,14.45
2023-08-20T06:37:27.904Z,12.07
2023-08-20T06:40:29.596Z,11.80
2023-08-20T06:43:31.144Z,12.15
2023-08-20T06:46:32.725Z,11.50
2023-08-20T06:49:34.255Z,12.30
2023-08-20T06:52:35.853Z,11.25
2023-08-20T06:55:37.610Z,16.70
2023-08-20T06:58:40.800Z,12.15
2023-08-20T07:01:42.478Z,12.95
2023-08-20T07:04:44.033Z,10.85
2023-08-20T07:07:46.622Z,10.30
2023-08-20T07:10:48.197Z,11.35
2023-08-20T07:13:49.729Z,10.50
2023-08-20T07:16:51.258Z,11.55
2023-08-20T07:19:52.835Z,13.60
2023-08-20T07:22:54.791Z,15.05
2023-08-20T07:26:13.057Z,10.73
2023-08-20T07:29:14.575Z,11.00
2023-08-20T07:32:16.113Z,11.82
2023-08-20T07:35:17.676Z,11.65
2023-08-20T07:38:19.219Z,10.80
2023-08-20T07:41:21.475Z,11.35
2023-08-20T07:44:23.046Z,11.05
2023-08-20T07:47:24.623Z,11.82
2023-08-20T07:50:26.156Z,12.23
2023-08-20T07:53:27.718Z,10.00
2023-08-20T07:56:30.299Z,10.98
2023-08-20T07:59:31.835Z,12.88
2023-08-20T08:02:33.359Z,12.90
2023-08-20T08:05:34.888Z,11.02
2023-08-20T08:08:36.455Z,10.77
2023-08-20T08:11:37.980Z,10.52
2023-08-20T08:14:39.511Z,11.18
2023-08-20T08:17:41.102Z,11.95
2023-08-20T08:20:43.029Z,9.27
2023-08-20T08:23:44.535Z,11.63
2023-08-20T08:26:46.093Z,9.77
2023-08-20T08:29:47.612Z,9.88
2023-08-20T08:32:49.451Z,10.93
2023-08-20T08:35:51.044Z,12.32
2023-08-20T08:38:53.605Z,10.55
2023-08-20T08:42:01.748Z,10.45
2023-08-20T08:45:04.216Z,9.68
2023-08-20T08:48:06.293Z,11.35
2023-08-20T08:51:07.911Z,9.60
2023-08-20T08:54:10.166Z,9.18
2023-08-20T08:57:12.243Z,11.13
2023-08-20T09:00:14.408Z,10.73
2023-08-20T09:03:16.182Z,9.50
2023-08-20T09:06:17.731Z,8.75
2023-08-20T09:09:20.929Z,9.65
2023-08-20T09:12:22.486Z,10.77
2023-08-20T09:15:33.057Z,9.85
2023-08-20T09:18:42.491Z,10.88
2023-08-20T09:21:48.041Z,9.98
2023-08-20T09:24:57.181Z,10.45
2023-08-20T09:27:58.809Z,11.38
2023-08-20T09:31:04.039Z,10.15
2023-08-20T09:34:05.841Z,11.10
2023-08-20T09:37:11.710Z,10.95
2023-08-20T09:40:13.356Z,10.85
2023-08-20T09:43:16.854Z,11.20
2023-08-20T09:49:24.106Z,12.30
2023-08-20T09:55:35.642Z,11.77
2023-08-20T09:58:39.299Z,11.20
2023-08-20T10:01:41.869Z,13.50
2023-08-20T10:04:44.767Z,11.27
2023-08-20T10:07:46.918Z,12.52
2023-08-20T10:10:48.455Z,11.57
2023-08-20T10:13:50.365Z,11.80
2023-08-20T10:16:54.018Z,11.18
2023-08-20T10:19:58.705Z,10.88
2023-08-20T10:23:04.544Z,11.10
2023-08-20T10:26:12.441Z,11.00
2023-08-20T10:29:39.759Z,10.40
2023-08-20T10:32:45.037Z,11.10
2023-08-20T10:35:46.755Z,12.77
2023-08-20T10:38:48.558Z,10.82
2023-08-20T10:42:20.630Z,9.95
2023-08-20T10:45:22.326Z,11.07
2023-08-20T10:48:25.412Z,12.60
2023-08-20T10:51:33.081Z,12.35
2023-08-20T10:54:35.492Z,12.38
2023-08-20T10:57:37.737Z,9.85
2023-08-20T11:00:39.618Z,15.20
2023-08-20T11:03:42.625Z,10.43
2023-08-20T11:06:45.197Z,16.00
2023-08-20T11:09:48.179Z,11.47
2023-08-20T11:12:49.708Z,10.20
2023-08-20T11:15:51.291Z,10.30
2023-08-20T11:18:54.549Z,10.85
2023-08-20T11:24:57.701Z,10.75
2023-08-20T11:27:59.253Z,12.93
2023-08-20T11:31:02.388Z,9.95
2023-08-20T11:34:04.836Z,9.95
2023-08-20T11:37:07.216Z,12.10
2023-08-20T11:40:09.346Z,15.20
2023-08-20T11:43:11.100Z,9.85
2023-08-20T11:46:17.205Z,11.07
2023-08-20T11:49:27.839Z,9.57
2023-08-20T11:52:33.340Z,12.07
2023-08-20T11:55:36.160Z,12.95
2023-08-20T11:58:37.698Z,11.38
2023-08-20T12:01:39.585Z,10.88
2023-08-20T12:04:43.029Z,9.32
2023-08-20T12:07:59.516Z,11.55
2023-08-20T12:11:03.178Z,11.40
2023-08-20T12:14:04.896Z,8.43
2023-08-20T12:17:07.656Z,8.18
2023-08-20T12:20:14.711Z,8.85
2023-08-20T12:23:17.679Z,9.50
2023-08-20T12:26:19.915Z,8.95
2023-08-20T12:29:23.311Z,7.90
2023-08-20T12:32:25.516Z,10.73
2023-08-20T12:35:27.200Z,8.45
2023-08-20T12:41:39.905Z,8.98
2023-08-20T12:44:41.474Z,10.25
2023-08-20T12:47:43.104Z,9.43
2023-08-20T12:53:46.511Z,9.52
2023-08-20T12:56:48.167Z,9.77
2023-08-20T12:59:49.827Z,10.20
2023-08-20T13:02:52.418Z,9.63
2023-08-20T13:05:54.347Z,10.60
2023-08-20T13:08:56.203Z,10.30
2023-08-20T13:11:59.737Z,9.13
2023-08-20T13:15:02.947Z,9.88
2023-08-20T13:18:05.376Z,10.02
2023-08-20T13:21:07.087Z,9.20
2023-08-20T13:24:09.965Z,12.68
2023-08-20T13:27:11.512Z,9.43
2023-08-20T13:30:14.194Z,9.23
2023-08-20T13:33:15.822Z,9.35
2023-08-20T13:36:17.512Z,9.40
2023-08-20T13:39:19.689Z,9.07
2023-08-20T13:42:22.776Z,9.30
2023-08-20T13:45:24.839Z,9.40
2023-08-20T13:48:26.505Z,9.77
2023-08-20T13:51:28.191Z,10.93
2023-08-20T13:54:29.712Z,8.40
2023-08-20T13:57:31.266Z,8.45
2023-08-20T14:00:32.930Z,9.57
2023-08-20T14:03:34.493Z,8.50
2023-08-20T14:06:36.140Z,8.88
2023-08-20T14:09:37.799Z,8.80
2023-08-20T14:12:41.005Z,8.80
2023-08-20T14:15:43.207Z,8.93
2023-08-20T14:18:44.944Z,8.80
2023-08-20T14:21:47.102Z,10.65
2023-08-20T14:24:48.756Z,9.73
2023-08-20T14:27:50.313Z,8.52
2023-08-20T14:30:57.628Z,9.70
2023-08-20T14:33:59.265Z,9.13
2023-08-20T14:37:00.816Z,8.07
2023-08-20T14:40:02.988Z,8.70
2023-08-20T14:43:04.857Z,10.05
2023-08-20T14:46:06.424Z,8.88
2023-08-20T14:49:08.068Z,9.25
2023-08-20T14:52:19.818Z,8.77
2023-08-20T14:55:22.658Z,8.60
2023-08-20T14:58:24.311Z,11.63
2023-08-20T15:01:25.980Z,8.43
2023-08-20T15:04:27.523Z,9.73
2023-08-20T15:07:29.077Z,9.25
2023-08-20T15:10:30.627Z,8.20
2023-08-20T15:13:32.925Z,8.48
2023-08-20T15:16:34.596Z,9.10
2023-08-20T15:19:36.404Z,8.50
2023-08-20T15:22:38.703Z,8.25
2023-08-20T15:25:41.028Z,10.63
2023-08-20T15:28:42.616Z,9.23
2023-08-20T15:31:44.257Z,8.63
2023-08-20T15:34:45.842Z,8.77
2023-08-20T15:37:47.484Z,9.05
2023-08-20T15:40:49.108Z,9.32
2023-08-20T15:43:50.663Z,9.02
2023-08-20T15:46:52.235Z,8.57
2023-08-20T15:49:53.983Z,8.38
2023-08-20T15:52:55.546Z,8.95
2023-08-20T15:55:57.100Z,7.70
2023-08-20T15:58:58.607Z,8.02
2023-08-20T16:02:00.306Z,11.15
2023-08-20T16:08:03.468Z,8.90
2023-08-20T16:11:04.992Z,10.57
2023-08-20T16:14:06.642Z,10.13
2023-08-20T16:17:08.194Z,9.53
2023-08-20T16:20:10.459Z,9.77
2023-08-20T16:23:12.194Z,11.65
2023-08-20T16:26:13.911Z,9.30
2023-08-20T16:29:15.420Z,9.55
2023-08-20T16:32:17.096Z,9.35
2023-08-20T16:35:18.881Z,9.35
2023-08-20T16:38:20.802Z,9.40
2023-08-20T16:41:22.521Z,10.05
2023-08-20T16:44:24.200Z,13.38
2023-08-20T16:47:25.963Z,12.00
2023-08-20T16:50:27.627Z,13.15
2023-08-20T16:53:29.245Z,10.10
2023-08-20T16:56:31.110Z,11.65
2023-08-20T16:59:33.149Z,11.45
2023-08-20T17:02:36.412Z,10.43
2023-08-20T17:05:38.014Z,10.23
2023-08-20T17:08:39.674Z,11.00
2023-08-20T17:11:41.219Z,9.88
2023-08-20T17:14:43.389Z,13.40
2023-08-20T17:17:45.815Z,10.85
2023-08-20T17:20:47.403Z,12.10
2023-08-20T17:23:48.965Z,10.98
2023-08-20T17:26:50.522Z,11.45
2023-08-20T17:29:52.092Z,13.80
2023-08-20T17:32:53.771Z,10.57
2023-08-20T17:35:56.519Z,10.07
2023-08-20T17:38:59.638Z,10.30
2023-08-20T17:42:02.854Z,12.25
2023-08-20T17:45:04.834Z,13.13
2023-08-20T17:48:06.929Z,13.00
2023-08-20T17:51:08.618Z,12.07
2023-08-20T17:54:10.385Z,16.33
2023-08-20T17:57:11.925Z,17.13
2023-08-20T18:00:13.892Z,14.30
2023-08-20T18:03:15.718Z,12.68
2023-08-20T18:06:17.669Z,13.05
2023-08-20T18:09:19.817Z,14.57
2023-08-20T18:12:21.453Z,11.15
2023-08-20T18:15:23.012Z,12.90
2023-08-20T18:18:24.637Z,12.75
2023-08-20T18:21:26.263Z,11.27
2023-08-20T18:24:27.839Z,11.40
2023-08-20T18:27:29.735Z,12.88
2023-08-20T18:30:31.393Z,11.55
2023-08-20T18:33:33.533Z,11.02
2023-08-20T18:36:35.160Z,11.70
2023-08-20T18:39:36.763Z,12.40
2023-08-20T18:42:39.282Z,14.13
2023-08-20T18:45:41.302Z,12.30
2023-08-20T18:48:42.904Z,12.25
2023-08-20T18:51:44.495Z,15.07
2023-08-20T18:54:46.087Z,12.27
2023-08-20T18:57:47.601Z,12.32
2023-08-20T19:00:49.798Z,12.23
2023-08-20T19:03:52.144Z,13.13
2023-08-20T19:06:53.758Z,12.70
2023-08-20T19:09:56.453Z,12.52
2023-08-20T19:12:58.345Z,14.07
2023-08-20T19:16:00.025Z,13.07
2023-08-20T19:19:01.680Z,12.93
2023-08-20T19:22:03.224Z,13.60
2023-08-20T19:25:05.225Z,13.75
2023-08-20T19:28:10.456Z,13.00
2023-08-20T19:31:13.245Z,13.30
2023-08-20T19:34:14.885Z,13.17
2023-08-20T19:37:16.441Z,13.00
2023-08-20T19:40:18.012Z,13.90
2023-08-20T19:43:19.656Z,13.93
2023-08-20T19:46:21.218Z,14.30
2023-08-20T19:49:22.837Z,13.55
2023-08-20T19:52:25.033Z,13.68
2023-08-20T19:55:26.951Z,13.75
2023-08-20T19:58:28.554Z,14.32
2023-08-20T20:01:30.564Z,13.27
2023-08-20T20:04:32.271Z,13.85
2023-08-20T20:07:33.978Z,15.32
2023-08-20T20:10:35.968Z,14.73
2023-08-20T20:13:37.703Z,14.02
2023-08-20T20:16:39.311Z,13.35
2023-08-20T20:19:41.908Z,15.32
2023-08-20T20:22:46.313Z,15.25
2023-08-20T20:25:47.856Z,15.90
2023-08-20T20:28:49.512Z,17.20
2023-08-20T20:31:51.208Z,16.17
2023-08-20T20:34:53.199Z,15.60
2023-08-20T20:37:54.834Z,14.98
2023-08-20T20:40:56.426Z,18.17
2023-08-20T20:43:58.072Z,16.33
2023-08-20T20:46:59.631Z,15.85
2023-08-20T20:50:02.124Z,16.92
2023-08-20T20:53:04.619Z,18.30
2023-08-20T20:56:06.270Z,15.35
2023-08-20T20:59:08.063Z,14.32
2023-08-20T21:02:09.793Z,16.58
2023-08-20T21:05:11.799Z,16.48
2023-08-20T21:08:13.323Z,16.40
2023-08-20T21:11:14.974Z,16.10
2023-08-20T21:14:16.603Z,16.17
2023-08-20T21:17:18.398Z,18.60
2023-08-20T21:20:20.027Z,16.27
2023-08-20T21:23:22.002Z,16.20
2023-08-20T21:26:24.992Z,17.25
2023-08-20T21:29:26.531Z,15.97
2023-08-20T21:32:28.307Z,15.45
2023-08-20T21:35:30.653Z,17.08
2023-08-20T21:38:33.331Z,15.95
2023-08-20T21:41:35.605Z,17.83
2023-08-20T21:44:37.273Z,15.25
2023-08-20T21:47:40.353Z,15.93
2023-08-20T21:50:42.024Z,17.48
2023-08-20T21:53:44.622Z,15.30
2023-08-20T21:56:54.423Z,16.75
2023-08-20T21:59:57.030Z,17.95
2023-08-20T22:02:59.693Z,17.05
2023-08-20T22:06:02.284Z,17.20
2023-08-20T22:09:04.193Z,16.52
2023-08-20T22:12:06.034Z,19.35
2023-08-20T22:15:08.499Z,17.83
2023-08-20T22:18:10.297Z,18.58
2023-08-20T22:21:12.087Z,19.33
2023-08-20T22:24:21.442Z,20.50
2023-08-20T22:27:23.244Z,17.83
2023-08-20T22:30:25.067Z,18.10
2023-08-20T22:33:26.847Z,18.67
2023-08-20T22:36:28.459Z,17.52
2023-08-20T22:39:30.450Z,19.42
2023-08-20T22:42:32.034Z,18.30
2023-08-20T22:45:34.094Z,17.52
2023-08-20T22:48:36.055Z,16.95
2023-08-20T22:51:37.858Z,18.67
2023-08-20T22:54:40.654Z,19.42
2023-08-20T22:57:42.469Z,18.63
2023-08-20T23:00:44.267Z,19.50
2023-08-20T23:03:46.027Z,19.60
2023-08-20T23:06:48.071Z,18.73
2023-08-20T23:09:49.854Z,18.10
2023-08-20T23:12:51.689Z,18.55
2023-08-20T23:15:54.474Z,17.50
2023-08-20T23:18:56.177Z,17.55
2023-08-20T23:21:58.276Z,19.77
2023-08-20T23:25:00.124Z,20.83
2023-08-20T23:28:01.720Z,19.90
2023-08-20T23:31:07.247Z,22.88
2023-08-20T23:34:09.084Z,20.55
2023-08-20T23:37:11.325Z,21.30
2023-08-20T23:40:13.208Z,21.05
2023-08-20T23:43:15.258Z,20.25
2023-08-20T23:46:17.536Z,18.67
2023-08-20T23:49:19.293Z,19.38
2023-08-20T23:52:21.094Z,18.25
2023-08-20T23:55:22.896Z,19.67
2023-08-20T23:58:24.898Z,20.50
